createdAt,value
2023-01-04T00:00:53.545Z,3.60
2023-01-04T00:01:53.513Z,3.40
2023-01-04T00:02:53.669Z,3.50
2023-01-04T00:03:53.649Z,3.40
2023-01-04T00:04:53.471Z,3.10
2023-01-04T00:05:53.474Z,3.30
2023-01-04T00:06:53.466Z,3.50
2023-01-04T00:07:53.438Z,3.60
2023-01-04T00:08:53.430Z,3.10
2023-01-04T00:09:53.415Z,3.20
2023-01-04T00:10:53.405Z,3.60
2023-01-04T00:11:53.399Z,3.30
2023-01-04T00:12:53.383Z,3.60
2023-01-04T00:13:53.373Z,3.40
2023-01-04T00:14:53.360Z,3.30
2023-01-04T00:15:53.430Z,3.30
2023-01-04T00:16:53.358Z,3.20
2023-01-04T00:17:53.362Z,3.00
2023-01-04T00:18:53.347Z,3.20
2023-01-04T00:19:53.335Z,3.30
2023-01-04T00:20:53.292Z,3.40
2023-01-04T00:21:53.278Z,3.20
2023-01-04T00:22:53.292Z,3.10
2023-01-04T00:23:53.264Z,3.10
2023-01-04T00:24:53.249Z,3.10
2023-01-04T00:25:53.237Z,3.20
2023-01-04T00:26:53.236Z,3.20
2023-01-04T00:27:53.228Z,3.20
2023-01-04T00:28:54.540Z,3.50
2023-01-04T00:29:53.207Z,3.20
2023-01-04T00:30:53.291Z,3.00
2023-01-04T00:31:53.262Z,3.30
2023-01-04T00:32:53.157Z,3.10
2023-01-04T00:33:53.146Z,3.40
2023-01-04T00:34:53.135Z,3.20
2023-01-04T00:35:53.132Z,3.30
2023-01-04T00:36:53.112Z,3.10
2023-01-04T00:37:53.103Z,3.30
2023-01-04T00:38:53.126Z,3.30
2023-01-04T00:39:53.080Z,3.00
2023-01-04T00:40:53.068Z,3.10
2023-01-04T00:42:01.552Z,3.50
2023-01-04T00:42:54.044Z,3.10
2023-01-04T00:43:53.035Z,3.00
2023-01-04T00:44:53.024Z,3.00
2023-01-04T00:45:53.053Z,3.20
2023-01-04T00:46:53.253Z,3.10
2023-01-04T00:47:52.994Z,3.50
2023-01-04T00:48:56.737Z,3.30
2023-01-04T00:49:53.966Z,3.10
2023-01-04T00:50:52.955Z,3.20
2023-01-04T00:51:52.943Z,3.10
2023-01-04T00:52:52.937Z,3.00
2023-01-04T00:53:52.954Z,3.00
2023-01-04T00:54:52.927Z,3.20
2023-01-04T00:55:52.896Z,3.20
2023-01-04T00:56:52.893Z,3.00
2023-01-04T00:57:52.877Z,3.30
2023-01-04T00:58:52.865Z,2.90
2023-01-04T00:59:52.861Z,3.00
2023-01-04T01:00:52.845Z,2.90
2023-01-04T01:01:53.033Z,3.00
2023-01-04T01:02:52.980Z,3.00
2023-01-04T01:03:52.855Z,2.90
2023-01-04T01:04:52.804Z,3.20
2023-01-04T01:05:52.804Z,3.10
2023-01-04T01:06:52.840Z,3.30
2023-01-04T01:07:52.768Z,2.90
2023-01-04T01:08:52.755Z,3.10
2023-01-04T01:09:52.744Z,3.00
2023-01-04T01:10:52.795Z,3.20
2023-01-04T01:11:52.729Z,3.00
2023-01-04T01:12:52.712Z,3.20
2023-01-04T01:13:52.718Z,3.10
2023-01-04T01:14:55.964Z,3.10
2023-01-04T01:15:53.729Z,3.00
2023-01-04T01:16:56.384Z,2.90
2023-01-04T01:17:53.657Z,2.80
2023-01-04T01:18:52.641Z,3.30
2023-01-04T01:19:52.643Z,2.90
2023-01-04T01:20:52.619Z,2.80
2023-01-04T01:21:52.621Z,2.80
2023-01-04T01:22:52.596Z,3.40
2023-01-04T01:23:52.593Z,2.90
2023-01-04T01:24:52.575Z,2.70
2023-01-04T01:25:52.563Z,3.00
2023-01-04T01:26:52.573Z,3.00
2023-01-04T01:27:52.544Z,3.10
2023-01-04T01:28:52.528Z,2.90
2023-01-04T01:29:52.546Z,2.90
2023-01-04T01:30:52.548Z,2.90
2023-01-04T01:31:52.587Z,2.90
2023-01-04T01:32:52.484Z,2.90
2023-01-04T01:33:52.475Z,2.80
2023-01-04T01:34:52.461Z,2.70
2023-01-04T01:35:52.458Z,3.00
2023-01-04T01:36:52.447Z,2.70
2023-01-04T01:37:52.434Z,2.70
2023-01-04T01:38:52.419Z,2.70
2023-01-04T01:39:52.410Z,3.00
2023-01-04T01:40:52.395Z,2.90
2023-01-04T01:41:52.404Z,2.80
2023-01-04T01:42:52.393Z,2.70
2023-01-04T01:43:52.362Z,2.80
2023-01-04T01:44:52.352Z,3.00
2023-01-04T01:45:52.342Z,2.80
2023-01-04T01:46:52.396Z,2.80
2023-01-04T01:47:52.338Z,2.90
2023-01-04T01:48:52.309Z,2.70
2023-01-04T01:49:52.293Z,3.00
2023-01-04T01:50:52.281Z,2.50
2023-01-04T01:51:52.271Z,2.70
2023-01-04T01:52:52.258Z,2.80
2023-01-04T01:53:52.268Z,3.00
2023-01-04T01:54:52.236Z,2.60
2023-01-04T01:55:52.226Z,3.30
2023-01-04T01:56:52.214Z,2.90
2023-01-04T01:57:52.204Z,2.90
2023-01-04T01:58:52.216Z,2.80
2023-01-04T01:59:52.191Z,2.50
2023-01-04T02:00:52.171Z,2.70
2023-01-04T02:01:52.325Z,2.60
2023-01-04T02:02:52.346Z,2.60
2023-01-04T02:03:52.181Z,2.80
2023-01-04T02:04:52.137Z,2.60
2023-01-04T02:05:52.145Z,2.80
2023-01-04T02:06:52.108Z,2.80
2023-01-04T02:07:52.092Z,2.70
2023-01-04T02:08:52.080Z,2.70
2023-01-04T02:09:52.071Z,2.60
2023-01-04T02:10:52.057Z,2.60
2023-01-04T02:11:52.055Z,2.80
2023-01-04T02:12:52.033Z,2.60
2023-01-04T02:13:52.039Z,2.70
2023-01-04T02:14:52.110Z,2.50
2023-01-04T02:15:52.038Z,2.50
2023-01-04T02:16:51.991Z,2.60
2023-01-04T02:17:51.994Z,2.50
2023-01-04T02:18:51.974Z,2.70
2023-01-04T02:19:51.957Z,2.40
2023-01-04T02:20:51.948Z,2.50
2023-01-04T02:21:51.934Z,2.80
2023-01-04T02:22:51.924Z,2.70
2023-01-04T02:23:51.916Z,2.80
2023-01-04T02:24:51.903Z,2.70
2023-01-04T02:25:51.924Z,2.80
2023-01-04T02:26:51.878Z,2.70
2023-01-04T02:27:51.864Z,2.60
2023-01-04T02:28:51.858Z,2.60
2023-01-04T02:29:51.865Z,2.50
2023-01-04T02:30:51.902Z,2.50
2023-01-04T02:31:51.903Z,2.60
2023-01-04T02:32:51.808Z,2.80
2023-01-04T02:33:51.798Z,2.60
2023-01-04T02:34:58.319Z,2.50
2023-01-04T02:35:52.781Z,2.70
2023-01-04T02:36:51.765Z,2.70
2023-01-04T02:37:51.754Z,2.80
2023-01-04T02:38:51.745Z,2.50
2023-01-04T02:39:51.742Z,2.70
2023-01-04T02:40:51.724Z,2.60
2023-01-04T02:41:51.748Z,2.60
2023-01-04T02:42:51.701Z,2.70
2023-01-04T02:43:51.691Z,2.70
2023-01-04T02:44:51.678Z,2.60
2023-01-04T02:45:51.665Z,2.60
2023-01-04T02:46:51.787Z,2.40
2023-01-04T02:47:51.651Z,2.50
2023-01-04T02:48:51.632Z,2.40
2023-01-04T02:49:51.623Z,2.60
2023-01-04T02:50:51.615Z,2.40
2023-01-04T02:51:51.599Z,2.40
2023-01-04T02:52:51.587Z,2.60
2023-01-04T02:53:51.607Z,2.40
2023-01-04T02:54:51.566Z,2.50
2023-01-04T02:55:51.563Z,2.50
2023-01-04T02:56:51.546Z,2.40
2023-01-04T02:57:51.532Z,2.70
2023-01-04T02:58:51.527Z,2.30
2023-01-04T02:59:51.514Z,2.40
2023-01-04T03:00:51.497Z,2.60
2023-01-04T03:01:51.584Z,2.20
2023-01-04T03:02:51.608Z,2.70
2023-01-04T03:03:51.523Z,2.50
2023-01-04T03:04:51.452Z,2.40
2023-01-04T03:05:51.468Z,2.60
2023-01-04T03:06:51.449Z,2.50
2023-01-04T03:07:51.425Z,2.60
2023-01-04T03:08:51.407Z,2.60
2023-01-04T03:09:51.405Z,2.40
2023-01-04T03:10:51.385Z,2.50
2023-01-04T03:11:51.380Z,2.30
2023-01-04T03:12:51.371Z,2.30
2023-01-04T03:13:51.354Z,2.40
2023-01-04T03:14:51.339Z,2.60
2023-01-04T03:15:51.412Z,2.60
2023-01-04T03:16:51.317Z,2.60
2023-01-04T03:17:51.336Z,2.60
2023-01-04T03:18:51.319Z,2.40
2023-01-04T03:19:51.286Z,2.30
2023-01-04T03:20:51.272Z,2.30
2023-01-04T03:21:51.261Z,2.20
2023-01-04T03:22:51.257Z,2.40
2023-01-04T03:23:51.243Z,2.60
2023-01-04T03:24:51.228Z,2.40
2023-01-04T03:25:51.216Z,2.40
2023-01-04T03:26:51.204Z,2.40
2023-01-04T03:27:51.194Z,2.40
2023-01-04T03:28:51.186Z,2.20
2023-01-04T03:29:51.192Z,2.30
2023-01-04T03:30:51.160Z,2.40
2023-01-04T03:31:51.260Z,2.20
2023-01-04T03:32:51.138Z,2.20
2023-01-04T03:33:51.133Z,2.40
2023-01-04T03:34:51.137Z,2.40
2023-01-04T03:35:51.112Z,2.40
2023-01-04T03:36:51.096Z,2.30
2023-01-04T03:37:51.081Z,2.40
2023-01-04T03:38:51.069Z,2.40
2023-01-04T03:39:51.059Z,2.20
2023-01-04T03:40:51.048Z,2.20
2023-01-04T03:41:51.063Z,2.50
2023-01-04T03:42:51.025Z,2.30
2023-01-04T03:43:51.013Z,2.50
2023-01-04T03:44:51.003Z,2.40
2023-01-04T03:45:50.992Z,2.20
2023-01-04T03:46:51.114Z,2.30
2023-01-04T03:47:50.978Z,2.20
2023-01-04T03:48:50.958Z,2.60
2023-01-04T03:49:50.951Z,2.20
2023-01-04T03:50:50.962Z,2.40
2023-01-04T03:51:50.923Z,2.30
2023-01-04T03:52:50.922Z,2.20
2023-01-04T03:53:50.932Z,2.40
2023-01-04T03:54:50.894Z,2.30
2023-01-04T03:55:50.884Z,2.40
2023-01-04T03:56:50.888Z,2.40
2023-01-04T03:57:50.857Z,2.40
2023-01-04T03:58:50.847Z,2.20
2023-01-04T03:59:50.856Z,2.00
2023-01-04T04:00:50.858Z,2.40
2023-01-04T04:01:50.950Z,2.00
2023-01-04T04:02:50.802Z,2.20
2023-01-04T04:03:50.843Z,2.20
2023-01-04T04:04:50.781Z,2.20
2023-01-04T04:05:50.783Z,2.30
2023-01-04T04:06:50.837Z,2.10
2023-01-04T04:07:50.773Z,2.20
2023-01-04T04:08:50.735Z,2.20
2023-01-04T04:09:50.751Z,2.30
2023-01-04T04:10:50.712Z,2.10
2023-01-04T04:11:50.735Z,2.20
2023-01-04T04:12:50.691Z,2.10
2023-01-04T04:13:50.675Z,2.30
2023-01-04T04:14:50.665Z,2.20
2023-01-04T04:15:50.655Z,2.00
2023-01-04T04:16:50.690Z,2.00
2023-01-04T04:17:50.676Z,2.30
2023-01-04T04:18:50.633Z,2.10
2023-01-04T04:19:50.623Z,2.20
2023-01-04T04:20:50.620Z,2.00
2023-01-04T04:21:50.610Z,2.20
2023-01-04T04:22:50.613Z,2.20
2023-01-04T04:23:50.571Z,2.10
2023-01-04T04:24:50.561Z,2.00
2023-01-04T04:25:50.561Z,2.00
2023-01-04T04:26:50.535Z,2.20
2023-01-04T04:27:50.529Z,2.00
2023-01-04T04:28:50.506Z,2.40
2023-01-04T04:29:50.532Z,2.00
2023-01-04T04:30:50.492Z,2.00
2023-01-04T04:31:50.570Z,1.90
2023-01-04T04:32:50.468Z,2.10
2023-01-04T04:33:50.452Z,1.90
2023-01-04T04:34:50.447Z,2.10
2023-01-04T04:35:50.437Z,2.10
2023-01-04T04:36:50.425Z,2.30
2023-01-04T04:37:50.425Z,2.20
2023-01-04T04:38:50.414Z,2.00
2023-01-04T04:39:50.390Z,1.80
2023-01-04T04:40:50.377Z,2.10
2023-01-04T04:41:50.390Z,1.90
2023-01-04T04:42:50.356Z,1.90
2023-01-04T04:43:50.339Z,2.30
2023-01-04T04:44:50.328Z,2.30
2023-01-04T04:45:50.385Z,2.00
2023-01-04T04:46:50.307Z,1.80
2023-01-04T04:47:50.302Z,1.90
2023-01-04T04:48:50.294Z,2.20
2023-01-04T04:49:50.272Z,2.20
2023-01-04T04:50:50.264Z,1.70
2023-01-04T04:51:50.252Z,1.90
2023-01-04T04:52:55.767Z,1.90
2023-01-04T04:53:51.249Z,2.00
2023-01-04T04:54:50.269Z,2.20
2023-01-04T04:55:50.206Z,2.10
2023-01-04T04:56:50.225Z,1.90
2023-01-04T04:57:50.187Z,2.20
2023-01-04T04:58:50.178Z,2.10
2023-01-04T04:59:50.183Z,2.30
2023-01-04T05:00:50.248Z,2.10
2023-01-04T05:01:50.308Z,1.90
2023-01-04T05:02:50.328Z,2.00
2023-01-04T05:03:50.118Z,2.00
2023-01-04T05:04:50.108Z,1.90
2023-01-04T05:05:50.124Z,1.90
2023-01-04T05:06:50.097Z,2.10
2023-01-04T05:07:50.074Z,2.00
2023-01-04T05:08:50.068Z,2.10
2023-01-04T05:09:50.063Z,2.00
2023-01-04T05:10:50.052Z,1.80
2023-01-04T05:11:50.043Z,1.80
2023-01-04T05:12:55.787Z,1.90
2023-01-04T05:13:51.004Z,1.70
2023-01-04T05:14:49.993Z,1.90
2023-01-04T05:15:49.981Z,2.00
2023-01-04T05:16:50.103Z,2.30
2023-01-04T05:17:49.965Z,2.10
2023-01-04T05:18:49.949Z,2.10
2023-01-04T05:19:49.949Z,2.00
2023-01-04T05:20:49.933Z,2.00
2023-01-04T05:21:49.914Z,2.00
2023-01-04T05:22:49.915Z,1.80
2023-01-04T05:23:49.898Z,2.10
2023-01-04T05:24:49.881Z,1.80
2023-01-04T05:25:49.870Z,2.00
2023-01-04T05:26:49.890Z,1.80
2023-01-04T05:27:49.855Z,2.10
2023-01-04T05:28:53.626Z,2.00
2023-01-04T05:29:49.850Z,1.70
2023-01-04T05:30:49.814Z,1.80
2023-01-04T05:31:49.959Z,1.80
2023-01-04T05:32:49.793Z,1.90
2023-01-04T05:33:49.780Z,1.80
2023-01-04T05:34:49.775Z,2.00
2023-01-04T05:35:49.764Z,1.90
2023-01-04T05:36:49.755Z,1.90
2023-01-04T05:37:49.742Z,1.90
2023-01-04T05:38:49.727Z,1.90
2023-01-04T05:39:49.713Z,1.70
2023-01-04T05:40:49.738Z,1.90
2023-01-04T05:41:49.719Z,1.70
2023-01-04T05:42:49.696Z,1.70
2023-01-04T05:43:49.674Z,1.70
2023-01-04T05:44:49.666Z,1.80
2023-01-04T05:45:49.730Z,1.60
2023-01-04T05:46:49.637Z,1.70
2023-01-04T05:47:49.635Z,1.90
2023-01-04T05:48:49.613Z,1.90
2023-01-04T05:49:49.610Z,2.30
2023-01-04T05:50:49.647Z,1.80
2023-01-04T05:51:49.583Z,1.80
2023-01-04T05:52:49.569Z,1.90
2023-01-04T05:53:49.577Z,1.80
2023-01-04T05:54:49.545Z,1.80
2023-01-04T05:55:49.560Z,1.90
2023-01-04T05:56:49.523Z,2.00
2023-01-04T05:57:49.547Z,1.60
2023-01-04T05:58:49.557Z,2.00
2023-01-04T05:59:49.493Z,1.90
2023-01-04T06:00:49.477Z,1.70
2023-01-04T06:01:49.666Z,1.80
2023-01-04T06:02:49.602Z,1.70
2023-01-04T06:03:49.572Z,1.80
2023-01-04T06:04:56.431Z,1.70
2023-01-04T06:05:50.458Z,1.70
2023-01-04T06:06:49.409Z,1.70
2023-01-04T06:07:49.399Z,1.60
2023-01-04T06:08:49.387Z,1.80
2023-01-04T06:09:49.376Z,1.70
2023-01-04T06:10:49.365Z,1.80
2023-01-04T06:11:49.361Z,1.70
2023-01-04T06:12:49.350Z,1.70
2023-01-04T06:13:49.342Z,2.00
2023-01-04T06:14:49.336Z,1.80
2023-01-04T06:15:49.311Z,1.80
2023-01-04T06:16:49.388Z,1.80
2023-01-04T06:17:49.320Z,1.60
2023-01-04T06:18:49.274Z,1.80
2023-01-04T06:19:49.285Z,1.90
2023-01-04T06:20:49.253Z,1.80
2023-01-04T06:21:49.241Z,1.70
2023-01-04T06:22:49.230Z,1.70
2023-01-04T06:23:49.229Z,1.70
2023-01-04T06:24:49.208Z,1.70
2023-01-04T06:25:49.201Z,1.60
2023-01-04T06:26:49.187Z,1.60
2023-01-04T06:27:49.174Z,1.80
2023-01-04T06:28:49.161Z,1.70
2023-01-04T06:29:49.172Z,1.80
2023-01-04T06:30:49.216Z,1.60
2023-01-04T06:31:49.154Z,1.50
2023-01-04T06:32:49.121Z,1.60
2023-01-04T06:33:49.108Z,1.60
2023-01-04T06:34:49.100Z,1.60
2023-01-04T06:35:49.099Z,1.60
2023-01-04T06:36:49.078Z,1.60
2023-01-04T06:37:49.066Z,1.50
2023-01-04T06:38:49.055Z,1.50
2023-01-04T06:39:49.045Z,1.70
2023-01-04T06:40:49.027Z,1.50
2023-01-04T06:41:49.043Z,1.70
2023-01-04T06:42:49.007Z,1.60
2023-01-04T06:43:48.994Z,1.70
2023-01-04T06:44:48.983Z,1.50
2023-01-04T06:45:49.045Z,1.70
2023-01-04T06:46:49.108Z,1.50
2023-01-04T06:47:48.955Z,1.60
2023-01-04T06:48:48.941Z,1.60
2023-01-04T06:49:48.928Z,1.70
2023-01-04T06:50:48.916Z,1.60
2023-01-04T06:51:48.907Z,1.80
2023-01-04T06:52:48.907Z,1.70
2023-01-04T06:53:48.890Z,1.60
2023-01-04T06:54:48.873Z,1.50
2023-01-04T06:55:48.863Z,1.70
2023-01-04T06:56:48.849Z,1.60
2023-01-04T06:57:48.838Z,1.70
2023-01-04T06:58:48.826Z,1.60
2023-01-04T06:59:48.841Z,1.60
2023-01-04T07:00:48.804Z,1.60
2023-01-04T07:01:48.920Z,1.60
2023-01-04T07:03:14.598Z,1.60
2023-01-04T07:03:49.768Z,1.60
2023-01-04T07:04:48.904Z,1.70
2023-01-04T07:05:48.754Z,1.70
2023-01-04T07:06:48.736Z,1.50
2023-01-04T07:07:48.726Z,1.70
2023-01-04T07:08:48.720Z,1.70
2023-01-04T07:09:48.707Z,1.50
2023-01-04T07:10:48.696Z,1.50
2023-01-04T07:11:48.701Z,1.40
2023-01-04T07:12:48.687Z,1.50
2023-01-04T07:13:48.657Z,1.80
2023-01-04T07:14:48.660Z,1.50
2023-01-04T07:15:48.678Z,1.70
2023-01-04T07:16:48.676Z,1.60
2023-01-04T07:17:48.638Z,1.60
2023-01-04T07:18:48.632Z,1.50
2023-01-04T07:19:48.593Z,1.40
2023-01-04T07:20:48.580Z,1.60
2023-01-04T07:21:48.569Z,1.50
2023-01-04T07:22:48.557Z,1.50
2023-01-04T07:23:48.553Z,1.60
2023-01-04T07:24:48.553Z,1.70
2023-01-04T07:25:48.533Z,1.60
2023-01-04T07:26:48.511Z,1.40
2023-01-04T07:27:48.510Z,1.50
2023-01-04T07:28:48.489Z,1.50
2023-01-04T07:29:48.489Z,3.00
2023-01-04T07:30:48.491Z,1.60
2023-01-04T07:31:48.462Z,1.80
2023-01-04T07:32:48.457Z,1.60
2023-01-04T07:33:48.438Z,2.10
2023-01-04T07:34:48.439Z,1.60
2023-01-04T07:35:48.416Z,1.50
2023-01-04T07:36:48.474Z,1.50
2023-01-04T07:37:53.814Z,1.60
2023-01-04T07:38:49.374Z,1.50
2023-01-04T07:39:48.365Z,1.40
2023-01-04T07:40:56.019Z,1.50
2023-01-04T07:41:49.350Z,1.50
2023-01-04T07:42:48.336Z,1.50
2023-01-04T07:43:48.321Z,1.50
2023-01-04T07:44:48.310Z,1.20
2023-01-04T07:45:48.331Z,1.60
2023-01-04T07:46:48.418Z,1.40
2023-01-04T07:47:48.298Z,1.50
2023-01-04T07:48:48.270Z,1.50
2023-01-04T07:49:48.254Z,1.50
2023-01-04T07:50:48.265Z,1.60
2023-01-04T07:51:48.232Z,1.50
2023-01-04T07:52:48.249Z,1.50
2023-01-04T07:53:48.225Z,1.50
2023-01-04T07:54:48.197Z,1.50
2023-01-04T07:55:48.187Z,1.60
2023-01-04T07:56:48.180Z,1.50
2023-01-04T07:57:48.172Z,1.60
2023-01-04T07:58:48.152Z,1.40
2023-01-04T07:59:48.148Z,1.40
2023-01-04T08:00:48.130Z,1.50
2023-01-04T08:01:48.199Z,1.30
2023-01-04T08:02:48.249Z,1.50
2023-01-04T08:03:48.096Z,1.50
2023-01-04T08:04:48.176Z,1.50
2023-01-04T08:05:48.089Z,1.50
2023-01-04T08:06:48.177Z,1.60
2023-01-04T08:07:48.053Z,1.30
2023-01-04T08:08:48.048Z,1.30
2023-01-04T08:09:48.029Z,1.40
2023-01-04T08:10:48.018Z,1.60
2023-01-04T08:11:48.013Z,1.50
2023-01-04T08:12:47.996Z,1.40
2023-01-04T08:13:47.988Z,1.70
2023-01-04T08:14:47.973Z,1.50
2023-01-04T08:15:48.092Z,1.60
2023-01-04T08:16:47.956Z,1.50
2023-01-04T08:17:47.984Z,1.30
2023-01-04T08:18:47.928Z,1.40
2023-01-04T08:19:47.919Z,1.90
2023-01-04T08:20:50.102Z,1.30
2023-01-04T08:21:48.895Z,1.40
2023-01-04T08:22:47.900Z,1.40
2023-01-04T08:23:47.877Z,1.40
2023-01-04T08:24:47.860Z,1.50
2023-01-04T08:25:47.850Z,1.40
2023-01-04T08:26:47.841Z,1.50
2023-01-04T08:27:47.846Z,1.50
2023-01-04T08:28:47.816Z,1.40
2023-01-04T08:29:47.815Z,1.40
2023-01-04T08:30:47.838Z,1.40
2023-01-04T08:31:47.895Z,1.30
2023-01-04T08:32:47.771Z,1.40
2023-01-04T08:33:47.768Z,1.50
2023-01-04T08:34:47.748Z,1.50
2023-01-04T08:35:47.751Z,1.50
2023-01-04T08:36:47.757Z,1.50
2023-01-04T08:37:47.717Z,1.40
2023-01-04T08:38:59.387Z,1.30
2023-01-04T08:39:49.944Z,1.60
2023-01-04T08:41:00.040Z,1.30
2023-01-04T08:41:57.836Z,1.50
2023-01-04T08:42:48.654Z,1.30
2023-01-04T08:43:47.652Z,1.50
2023-01-04T08:44:47.673Z,1.40
2023-01-04T08:45:47.625Z,1.50
2023-01-04T08:46:47.673Z,1.20
2023-01-04T08:47:47.609Z,1.50
2023-01-04T08:48:47.611Z,1.50
2023-01-04T08:49:47.598Z,1.90
2023-01-04T08:50:47.568Z,1.50
2023-01-04T08:51:47.556Z,1.30
2023-01-04T08:52:47.552Z,1.80
2023-01-04T08:53:47.545Z,1.30
2023-01-04T08:54:47.598Z,1.20
2023-01-04T08:55:47.516Z,1.40
2023-01-04T08:56:47.500Z,1.50
2023-01-04T08:57:47.487Z,1.50
2023-01-04T08:58:47.484Z,1.30
2023-01-04T08:59:47.473Z,1.70
2023-01-04T09:00:47.457Z,1.30
2023-01-04T09:01:47.566Z,1.90
2023-01-04T09:02:47.610Z,1.40
2023-01-04T09:03:47.422Z,2.00
2023-01-04T09:04:47.524Z,1.40
2023-01-04T09:05:47.405Z,1.50
2023-01-04T09:06:47.412Z,1.60
2023-01-04T09:07:47.383Z,1.50
2023-01-04T09:08:47.366Z,1.30
2023-01-04T09:09:47.366Z,2.10
2023-01-04T09:10:47.367Z,1.70
2023-01-04T09:11:47.339Z,1.90
2023-01-04T09:12:47.321Z,1.60
2023-01-04T09:13:47.313Z,1.30
2023-01-04T09:14:47.299Z,1.70
2023-01-04T09:15:47.344Z,1.90
2023-01-04T09:16:47.328Z,1.60
2023-01-04T09:18:20.584Z,1.60
2023-01-04T09:18:48.253Z,1.30
2023-01-04T09:19:47.241Z,1.60
2023-01-04T09:20:47.238Z,1.60
2023-01-04T09:21:47.240Z,1.30
2023-01-04T09:22:47.211Z,1.40
2023-01-04T09:23:47.210Z,1.40
2023-01-04T09:24:47.194Z,2.00
2023-01-04T09:25:47.179Z,1.40
2023-01-04T09:26:47.178Z,1.30
2023-01-04T09:27:47.157Z,1.40
2023-01-04T09:28:47.150Z,1.50
2023-01-04T09:29:47.140Z,1.30
2023-01-04T09:30:47.118Z,1.60
2023-01-04T09:31:47.555Z,1.40
2023-01-04T09:32:47.432Z,1.30
2023-01-04T09:34:13.336Z,1.80
2023-01-04T09:34:48.083Z,1.80
2023-01-04T09:35:47.066Z,1.30
2023-01-04T09:36:47.057Z,1.20
2023-01-04T09:37:47.043Z,1.50
2023-01-04T09:38:47.031Z,1.50
2023-01-04T09:39:47.020Z,1.40
2023-01-04T09:40:47.016Z,1.40
2023-01-04T09:41:47.002Z,1.40
2023-01-04T09:42:47.002Z,2.60
2023-01-04T09:43:46.982Z,1.30
2023-01-04T09:45:22.053Z,1.80
2023-01-04T09:45:47.956Z,1.30
2023-01-04T09:46:46.986Z,1.30
2023-01-04T09:47:46.928Z,1.50
2023-01-04T09:48:46.917Z,1.30
2023-01-04T09:49:46.907Z,1.20
2023-01-04T09:50:46.895Z,1.50
2023-01-04T09:51:46.902Z,1.30
2023-01-04T09:52:46.879Z,1.40
2023-01-04T09:53:46.862Z,1.60
2023-01-04T09:54:46.849Z,1.50
2023-01-04T09:55:46.840Z,1.20
2023-01-04T09:56:46.825Z,1.30
2023-01-04T09:57:46.824Z,1.30
2023-01-04T09:58:46.994Z,1.40
2023-01-04T09:59:46.794Z,1.20
2023-01-04T10:00:47.160Z,1.20
2023-01-04T10:01:47.061Z,1.70
2023-01-04T10:02:46.915Z,1.30
2023-01-04T10:03:46.858Z,1.40
2023-01-04T10:04:46.736Z,1.20
2023-01-04T10:05:46.725Z,1.30
2023-01-04T10:06:46.714Z,1.80
2023-01-04T10:07:47.063Z,1.30
2023-01-04T10:08:46.913Z,1.40
2023-01-04T10:09:46.915Z,1.60
2023-01-04T10:10:46.672Z,1.40
2023-01-04T10:11:46.657Z,1.30
2023-01-04T10:12:46.653Z,1.30
2023-01-04T10:13:46.635Z,1.30
2023-01-04T10:14:46.827Z,2.00
2023-01-04T10:15:46.685Z,1.00
2023-01-04T10:17:14.339Z,1.60
2023-01-04T10:21:47.574Z,1.20
2023-01-04T10:22:46.540Z,1.10
2023-01-04T10:23:46.522Z,1.60
2023-01-04T10:24:46.527Z,1.40
2023-01-04T10:25:46.509Z,1.80
2023-01-04T10:26:46.518Z,1.30
2023-01-04T10:27:46.477Z,1.30
2023-01-04T10:28:46.472Z,1.40
2023-01-04T10:29:46.486Z,1.30
2023-01-04T10:30:46.466Z,1.40
2023-01-04T10:31:46.530Z,1.70
2023-01-04T10:32:46.452Z,1.60
2023-01-04T10:33:46.414Z,1.30
2023-01-04T10:34:46.409Z,1.20
2023-01-04T10:35:46.412Z,1.20
2023-01-04T10:36:46.390Z,1.30
2023-01-04T10:37:46.368Z,1.20
2023-01-04T10:38:46.361Z,1.30
2023-01-04T10:39:46.350Z,1.20
2023-01-04T10:40:46.332Z,1.20
2023-01-04T10:41:46.326Z,1.80
2023-01-04T10:42:46.310Z,1.50
2023-01-04T10:44:13.881Z,1.10
2023-01-04T10:44:47.307Z,1.10
2023-01-04T10:45:46.273Z,1.50
2023-01-04T10:46:46.317Z,1.60
2023-01-04T10:47:46.253Z,1.30
2023-01-04T10:48:46.241Z,1.40
2023-01-04T10:49:46.232Z,1.20
2023-01-04T10:50:46.235Z,1.20
2023-01-04T10:51:46.209Z,1.20
2023-01-04T10:52:46.197Z,1.40
2023-01-04T10:53:47.574Z,1.30
2023-01-04T10:54:46.684Z,1.10
2023-01-04T10:56:24.150Z,1.40
2023-01-04T10:56:47.378Z,1.50
2023-01-04T10:57:46.708Z,1.40
2023-01-04T10:58:46.918Z,1.40
2023-01-04T10:59:46.119Z,1.50
2023-01-04T11:00:46.144Z,1.60
2023-01-04T11:01:46.355Z,1.10
2023-01-04T11:02:46.234Z,1.20
2023-01-04T11:03:46.115Z,1.20
2023-01-04T11:04:46.063Z,1.20
2023-01-04T11:05:46.060Z,1.10
2023-01-04T11:06:46.037Z,1.30
2023-01-04T11:07:46.031Z,1.40
2023-01-04T11:08:46.031Z,1.10
2023-01-04T11:09:46.007Z,1.60
2023-01-04T11:10:45.995Z,1.30
2023-01-04T11:11:45.991Z,1.30
2023-01-04T11:12:45.980Z,1.20
2023-01-04T11:13:45.960Z,1.30
2023-01-04T11:14:45.964Z,1.30
2023-01-04T11:15:45.947Z,1.20
2023-01-04T11:16:45.989Z,1.60
2023-01-04T11:17:45.917Z,1.70
2023-01-04T11:18:45.924Z,1.80
2023-01-04T11:19:45.895Z,1.20
2023-01-04T11:20:45.915Z,1.20
2023-01-04T11:21:45.871Z,1.20
2023-01-04T11:22:45.939Z,1.30
2023-01-04T11:23:45.849Z,1.60
2023-01-04T11:25:07.824Z,1.60
2023-01-04T11:25:50.458Z,1.20
2023-01-04T11:26:46.828Z,1.30
2023-01-04T11:27:45.807Z,1.40
2023-01-04T11:28:45.796Z,1.40
2023-01-04T11:29:45.794Z,1.30
2023-01-04T11:30:45.774Z,1.10
2023-01-04T11:31:45.815Z,1.10
2023-01-04T11:32:45.747Z,1.10
2023-01-04T11:33:45.736Z,1.20
2023-01-04T11:34:45.743Z,1.20
2023-01-04T11:35:45.714Z,1.20
2023-01-04T11:36:45.709Z,1.20
2023-01-04T11:37:45.696Z,1.20
2023-01-04T11:38:45.679Z,1.10
2023-01-04T11:39:45.668Z,1.20
2023-01-04T11:40:45.657Z,1.20
2023-01-04T11:41:45.645Z,1.50
2023-01-04T11:42:45.652Z,1.20
2023-01-04T11:43:45.630Z,1.20
2023-01-04T11:44:45.613Z,1.70
2023-01-04T11:45:45.623Z,1.20
2023-01-04T11:46:45.589Z,1.40
2023-01-04T11:47:45.581Z,1.70
2023-01-04T11:48:45.568Z,2.30
2023-01-04T11:49:45.574Z,1.20
2023-01-04T11:50:45.568Z,1.60
2023-01-04T11:51:45.535Z,1.40
2023-01-04T11:52:45.530Z,1.10
2023-01-04T11:53:45.511Z,1.90
2023-01-04T11:54:45.511Z,2.20
2023-01-04T11:55:45.518Z,1.60
2023-01-04T11:56:45.478Z,1.30
2023-01-04T11:57:45.468Z,0.90
2023-01-04T11:58:45.456Z,1.20
2023-01-04T11:59:45.445Z,1.30
2023-01-04T12:00:45.432Z,1.40
2023-01-04T12:01:45.501Z,1.50
2023-01-04T12:03:02.131Z,1.80
2023-01-04T12:03:46.397Z,3.50
2023-01-04T12:04:45.386Z,1.50
2023-01-04T12:05:45.376Z,1.40
2023-01-04T12:06:45.383Z,1.50
2023-01-04T12:07:45.370Z,1.40
2023-01-04T12:08:45.358Z,3.30
2023-01-04T12:09:45.344Z,1.60
2023-01-04T12:10:45.321Z,1.40
2023-01-04T12:11:45.310Z,1.50
2023-01-04T12:12:45.308Z,1.60
2023-01-04T12:13:45.298Z,1.20
2023-01-04T12:14:45.281Z,1.50
2023-01-04T12:15:45.264Z,1.30
2023-01-04T12:16:45.260Z,1.20
2023-01-04T12:17:45.241Z,1.50
2023-01-04T12:18:45.243Z,1.20
2023-01-04T12:19:45.236Z,1.10
2023-01-04T12:20:45.209Z,1.40
2023-01-04T12:21:45.199Z,1.20
2023-01-04T12:22:45.202Z,1.10
2023-01-04T12:23:45.177Z,1.40
2023-01-04T12:24:45.168Z,1.20
2023-01-04T12:25:45.175Z,1.20
2023-01-04T12:26:45.155Z,1.10
2023-01-04T12:27:45.151Z,1.10
2023-01-04T12:28:45.122Z,1.30
2023-01-04T12:29:45.119Z,1.00
2023-01-04T12:30:45.100Z,1.60
2023-01-04T12:31:45.105Z,1.10
2023-01-04T12:32:45.105Z,1.40
2023-01-04T12:33:45.063Z,1.90
2023-01-04T12:34:45.052Z,1.50
2023-01-04T12:35:45.039Z,1.90
2023-01-04T12:36:45.054Z,1.50
2023-01-04T12:37:45.036Z,2.00
2023-01-04T12:38:45.025Z,1.40
2023-01-04T12:39:45.010Z,2.10
2023-01-04T12:40:44.985Z,1.70
2023-01-04T12:41:44.975Z,1.80
2023-01-04T12:42:44.961Z,2.40
2023-01-04T12:43:47.132Z,1.80
2023-01-04T12:44:44.939Z,1.80
2023-01-04T12:45:44.988Z,1.50
2023-01-04T12:46:44.927Z,1.40
2023-01-04T12:47:44.917Z,2.40
2023-01-04T12:48:44.893Z,1.60
2023-01-04T12:49:44.890Z,2.30
2023-01-04T12:50:52.199Z,1.40
2023-01-04T12:51:58.408Z,1.10
2023-01-04T12:53:45.837Z,1.60
2023-01-04T12:54:44.842Z,2.30
2023-01-04T12:55:44.959Z,2.00
2023-01-04T12:56:44.804Z,3.20
2023-01-04T12:57:44.794Z,3.90
2023-01-04T12:59:23.433Z,1.60
2023-01-04T12:59:45.771Z,2.50
2023-01-04T13:00:44.759Z,2.30
2023-01-04T13:01:44.865Z,1.30
2023-01-04T13:02:44.965Z,2.70
2023-01-04T13:03:44.790Z,2.20
2023-01-04T13:04:44.714Z,3.00
2023-01-04T13:05:56.124Z,1.90
2023-01-04T13:06:45.695Z,3.30
2023-01-04T13:07:44.719Z,1.50
2023-01-04T13:08:44.677Z,1.30
2023-01-04T13:09:48.193Z,1.60
2023-01-04T13:10:44.663Z,1.70
2023-01-04T13:11:44.635Z,2.80
2023-01-04T13:12:44.639Z,3.20
2023-01-04T13:13:44.618Z,1.70
2023-01-04T13:14:44.602Z,1.70
2023-01-04T13:15:44.596Z,2.50
2023-01-04T13:16:44.652Z,1.30
2023-01-04T13:17:44.569Z,1.70
2023-01-04T13:18:44.566Z,2.00
2023-01-04T13:19:44.545Z,2.50
2023-01-04T13:20:44.534Z,1.50
2023-01-04T13:21:44.523Z,2.40
2023-01-04T13:22:44.511Z,1.30
2023-01-04T13:23:44.502Z,3.40